Terminal Aerodrome Forecast
Issued by NWS

Home | Current Version | Previous Version | Text Only | Print | Product List | Glossary Off
Versions: 1 2 3 4 5 6 7 8 9 10 11 12 13 14 15 16 17 18 19 20 21

000
FTUS42 KMHX 200500
TAFISO
TAF
KISO 200531Z 2006/2106 02010G16KT 6SM -RADZ OVC007
     FM200900 02010G17KT 6SM -RA BR OVC010
     FM201400 03015G27KT P6SM OVC035
      AMD LTD TO CLD VIS AND WIND=

USA.gov is the U.S. government's official web portal to all federal, state and local government web resources and services.